sensor_id;sensor_type;location;lat;lon;timestamp;temperature;humidity
12520;DHT22;6325;49.540;8.364;2022-08-05T00:00:12;28.10;88.20
12520;DHT22;6325;49.540;8.364;2022-08-05T00:02:39;28.30;89.50
12520;DHT22;6325;49.540;8.364;2022-08-05T00:05:07;28.00;90.30
12520;DHT22;6325;49.540;8.364;2022-08-05T00:07:34;27.80;91.10
12520;DHT22;6325;49.540;8.364;2022-08-05T00:10:03;27.90;91.60
12520;DHT22;6325;49.540;8.364;2022-08-05T00:12:30;27.80;92.40
12520;DHT22;6325;49.540;8.364;2022-08-05T00:14:57;27.80;93.20
12520;DHT22;6325;49.540;8.364;2022-08-05T00:17:26;27.70;93.90
12520;DHT22;6325;49.540;8.364;2022-08-05T00:19:53;28.10;95.10
12520;DHT22;6325;49.540;8.364;2022-08-05T00:22:19;27.60;96.00
12520;DHT22;6325;49.540;8.364;2022-08-05T00:24:46;27.60;97.20
12520;DHT22;6325;49.540;8.364;2022-08-05T00:27:15;27.40;98.10
12520;DHT22;6325;49.540;8.364;2022-08-05T00:29:42;27.30;99.10
12520;DHT22;6325;49.540;8.364;2022-08-05T00:32:09;27.30;99.90
12520;DHT22;6325;49.540;8.364;2022-08-05T00:34:37;27.00;99.90
12520;DHT22;6325;49.540;8.364;2022-08-05T00:37:05;27.20;99.90
12520;DHT22;6325;49.540;8.364;2022-08-05T00:39:32;27.30;99.90
12520;DHT22;6325;49.540;8.364;2022-08-05T00:41:59;27.00;99.90
12520;DHT22;6325;49.540;8.364;2022-08-05T00:44:29;27.10;99.90
12520;DHT22;6325;49.540;8.364;2022-08-05T00:46:56;26.60;99.90
12520;DHT22;6325;49.540;8.364;2022-08-05T00:49:23;27.10;99.90
12520;DHT22;6325;49.540;8.364;2022-08-05T00:51:50;27.00;99.90
12520;DHT22;6325;49.540;8.364;2022-08-05T00:54:17;27.00;99.90
12520;DHT22;6325;49.540;8.364;2022-08-05T00:56:44;26.90;99.90
12520;DHT22;6325;49.540;8.364;2022-08-05T00:59:11;27.30;99.90
12520;DHT22;6325;49.540;8.364;2022-08-05T01:01:40;26.90;99.90
12520;DHT22;6325;49.540;8.364;2022-08-05T01:04:07;27.40;99.90
12520;DHT22;6325;49.540;8.364;2022-08-05T01:06:34;27.30;99.90
12520;DHT22;6325;49.540;8.364;2022-08-05T01:09:01;26.70;99.90
12520;DHT22;6325;49.540;8.364;2022-08-05T01:11:34;27.00;99.90
12520;DHT22;6325;49.540;8.364;2022-08-05T01:14:08;26.70;99.90
12520;DHT22;6325;49.540;8.364;2022-08-05T01:16:42;27.00;99.90
12520;DHT22;6325;49.540;8.364;2022-08-05T01:19:22;27.00;99.90
12520;DHT22;6325;49.540;8.364;2022-08-05T01:22:22;27.00;99.90
12520;DHT22;6325;49.540;8.364;2022-08-05T01:25:02;26.80;99.90
12520;DHT22;6325;49.540;8.364;2022-08-05T01:27:58;27.00;99.90
12520;DHT22;6325;49.540;8.364;2022-08-05T01:30:37;26.90;99.90
12520;DHT22;6325;49.540;8.364;2022-08-05T01:33:08;26.80;99.90
12520;DHT22;6325;49.540;8.364;2022-08-05T01:35:39;27.10;99.90
12520;DHT22;6325;49.540;8.364;2022-08-05T01:38:07;27.20;99.90
12520;DHT22;6325;49.540;8.364;2022-08-05T01:40:37;26.80;99.90
12520;DHT22;6325;49.540;8.364;2022-08-05T01:43:06;26.50;99.90
12520;DHT22;6325;49.540;8.364;2022-08-05T01:45:36;26.70;99.90
12520;DHT22;6325;49.540;8.364;2022-08-05T01:48:05;26.70;99.90
12520;DHT22;6325;49.540;8.364;2022-08-05T01:50:36;26.60;99.90
12520;DHT22;6325;49.540;8.364;2022-08-05T01:53:06;26.10;99.90
12520;DHT22;6325;49.540;8.364;2022-08-05T01:55:34;26.60;99.90
12520;DHT22;6325;49.540;8.364;2022-08-05T01:58:03;26.70;99.90
12520;DHT22;6325;49.540;8.364;2022-08-05T02:00:35;26.20;99.90
12520;DHT22;6325;49.540;8.364;2022-08-05T02:03:07;26.30;99.90
12520;DHT22;6325;49.540;8.364;2022-08-05T02:05:36;26.50;99.90
12520;DHT22;6325;49.540;8.364;2022-08-05T02:08:04;26.50;99.90
12520;DHT22;6325;49.540;8.364;2022-08-05T02:10:42;26.20;99.90
12520;DHT22;6325;49.540;8.364;2022-08-05T02:13:13;26.10;99.90
12520;DHT22;6325;49.540;8.364;2022-08-05T02:15:43;26.40;99.90
12520;DHT22;6325;49.540;8.364;2022-08-05T02:18:17;26.70;99.90
12520;DHT22;6325;49.540;8.364;2022-08-05T02:20:51;26.60;99.90
12520;DHT22;6325;49.540;8.364;2022-08-05T02:23:23;26.30;99.90
12520;DHT22;6325;49.540;8.364;2022-08-05T02:25:52;26.60;99.90
12520;DHT22;6325;49.540;8.364;2022-08-05T02:28:23;26.20;99.90
12520;DHT22;6325;49.540;8.364;2022-08-05T02:30:59;26.30;99.90
12520;DHT22;6325;49.540;8.364;2022-08-05T02:33:29;26.40;99.90
12520;DHT22;6325;49.540;8.364;2022-08-05T02:35:58;26.50;99.90
12520;DHT22;6325;49.540;8.364;2022-08-05T02:38:28;26.50;99.90
12520;DHT22;6325;49.540;8.364;2022-08-05T02:40:57;26.00;99.90
12520;DHT22;6325;49.540;8.364;2022-08-05T02:43:25;26.30;99.90
12520;DHT22;6325;49.540;8.364;2022-08-05T02:45:54;26.50;99.90
12520;DHT22;6325;49.540;8.364;2022-08-05T02:48:22;25.90;99.90
12520;DHT22;6325;49.540;8.364;2022-08-05T02:50:51;26.10;99.90
12520;DHT22;6325;49.540;8.364;2022-08-05T02:53:19;25.90;99.90
12520;DHT22;6325;49.540;8.364;2022-08-05T02:55:47;26.10;99.90
12520;DHT22;6325;49.540;8.364;2022-08-05T02:58:15;26.00;99.90
12520;DHT22;6325;49.540;8.364;2022-08-05T03:00:44;26.00;99.90
12520;DHT22;6325;49.540;8.364;2022-08-05T03:03:14;26.00;99.90
12520;DHT22;6325;49.540;8.364;2022-08-05T03:05:42;26.20;99.90
12520;DHT22;6325;49.540;8.364;2022-08-05T03:08:09;26.10;99.90
12520;DHT22;6325;49.540;8.364;2022-08-05T03:10:37;26.20;99.90
12520;DHT22;6325;49.540;8.364;2022-08-05T03:13:11;26.10;99.90
12520;DHT22;6325;49.540;8.364;2022-08-05T03:15:41;26.20;99.90
12520;DHT22;6325;49.540;8.364;2022-08-05T03:18:09;26.20;99.90
12520;DHT22;6325;49.540;8.364;2022-08-05T03:20:37;26.60;99.90
12520;DHT22;6325;49.540;8.364;2022-08-05T03:23:06;25.70;99.90
12520;DHT22;6325;49.540;8.364;2022-08-05T03:25:34;26.00;99.90
12520;DHT22;6325;49.540;8.364;2022-08-05T03:28:02;25.70;99.90
12520;DHT22;6325;49.540;8.364;2022-08-05T03:30:30;25.90;99.90
12520;DHT22;6325;49.540;8.364;2022-08-05T03:32:58;25.60;99.90
12520;DHT22;6325;49.540;8.364;2022-08-05T03:35:26;25.30;99.90
12520;DHT22;6325;49.540;8.364;2022-08-05T03:37:55;25.70;99.90
12520;DHT22;6325;49.540;8.364;2022-08-05T03:40:22;25.80;99.90
12520;DHT22;6325;49.540;8.364;2022-08-05T03:42:49;25.70;99.90
12520;DHT22;6325;49.540;8.364;2022-08-05T03:45:17;25.60;99.90
12520;DHT22;6325;49.540;8.364;2022-08-05T03:47:44;25.90;99.90
12520;DHT22;6325;49.540;8.364;2022-08-05T03:50:11;25.40;99.90
12520;DHT22;6325;49.540;8.364;2022-08-05T03:52:46;25.30;99.90
12520;DHT22;6325;49.540;8.364;2022-08-05T03:55:21;25.60;99.90
12520;DHT22;6325;49.540;8.364;2022-08-05T03:57:52;25.20;99.90
12520;DHT22;6325;49.540;8.364;2022-08-05T04:00:20;25.40;99.90
12520;DHT22;6325;49.540;8.364;2022-08-05T04:02:51;25.30;99.90
12520;DHT22;6325;49.540;8.364;2022-08-05T04:05:24;24.80;99.90
12520;DHT22;6325;49.540;8.364;2022-08-05T04:07:58;25.30;99.90
12520;DHT22;6325;49.540;8.364;2022-08-05T04:10:29;24.40;99.90
12520;DHT22;6325;49.540;8.364;2022-08-05T04:12:56;24.90;99.90
12520;DHT22;6325;49.540;8.364;2022-08-05T04:15:32;24.80;99.90
12520;DHT22;6325;49.540;8.364;2022-08-05T04:18:12;24.50;99.90
12520;DHT22;6325;49.540;8.364;2022-08-05T04:20:53;24.80;99.90
12520;DHT22;6325;49.540;8.364;2022-08-05T04:23:22;24.50;99.90
12520;DHT22;6325;49.540;8.364;2022-08-05T04:26:12;24.50;99.90
12520;DHT22;6325;49.540;8.364;2022-08-05T04:28:45;24.70;99.90
12520;DHT22;6325;49.540;8.364;2022-08-05T04:31:13;24.40;99.90
12520;DHT22;6325;49.540;8.364;2022-08-05T04:33:40;24.60;99.90
12520;DHT22;6325;49.540;8.364;2022-08-05T04:36:11;24.30;99.90
12520;DHT22;6325;49.540;8.364;2022-08-05T04:38:41;24.30;99.90
12520;DHT22;6325;49.540;8.364;2022-08-05T04:41:11;24.20;99.90
12520;DHT22;6325;49.540;8.364;2022-08-05T04:43:41;24.90;99.90
12520;DHT22;6325;49.540;8.364;2022-08-05T04:46:08;24.30;99.90
12520;DHT22;6325;49.540;8.364;2022-08-05T04:48:35;23.80;99.90
12520;DHT22;6325;49.540;8.364;2022-08-05T04:51:02;23.90;99.90
12520;DHT22;6325;49.540;8.364;2022-08-05T04:53:29;24.40;99.90
12520;DHT22;6325;49.540;8.364;2022-08-05T04:55:56;24.60;99.90
12520;DHT22;6325;49.540;8.364;2022-08-05T04:58:24;23.90;99.90
12520;DHT22;6325;49.540;8.364;2022-08-05T05:00:51;24.40;99.90
12520;DHT22;6325;49.540;8.364;2022-08-05T05:03:18;24.00;99.90
12520;DHT22;6325;49.540;8.364;2022-08-05T05:05:45;24.40;99.90
12520;DHT22;6325;49.540;8.364;2022-08-05T05:08:12;24.40;99.90
12520;DHT22;6325;49.540;8.364;2022-08-05T05:10:40;24.40;99.90
12520;DHT22;6325;49.540;8.364;2022-08-05T05:13:08;24.30;99.90
12520;DHT22;6325;49.540;8.364;2022-08-05T05:15:37;24.40;99.90
12520;DHT22;6325;49.540;8.364;2022-08-05T05:18:05;24.50;99.90
12520;DHT22;6325;49.540;8.364;2022-08-05T05:20:32;24.50;99.90
12520;DHT22;6325;49.540;8.364;2022-08-05T05:23:00;24.50;99.90
12520;DHT22;6325;49.540;8.364;2022-08-05T05:25:29;24.50;99.90
12520;DHT22;6325;49.540;8.364;2022-08-05T05:27:56;24.60;99.90
12520;DHT22;6325;49.540;8.364;2022-08-05T05:30:23;24.50;99.90
12520;DHT22;6325;49.540;8.364;2022-08-05T05:32:52;25.00;99.90
12520;DHT22;6325;49.540;8.364;2022-08-05T05:35:19;24.30;99.90
12520;DHT22;6325;49.540;8.364;2022-08-05T05:37:50;24.20;99.90
12520;DHT22;6325;49.540;8.364;2022-08-05T05:40:22;24.60;99.90
12520;DHT22;6325;49.540;8.364;2022-08-05T05:42:51;24.90;99.90
12520;DHT22;6325;49.540;8.364;2022-08-05T05:45:19;24.60;99.90
12520;DHT22;6325;49.540;8.364;2022-08-05T05:47:50;24.40;99.90
12520;DHT22;6325;49.540;8.364;2022-08-05T05:50:23;24.80;99.90
12520;DHT22;6325;49.540;8.364;2022-08-05T05:52:52;24.80;99.90
12520;DHT22;6325;49.540;8.364;2022-08-05T05:55:21;24.60;99.90
12520;DHT22;6325;49.540;8.364;2022-08-05T05:57:52;24.90;99.90
12520;DHT22;6325;49.540;8.364;2022-08-05T06:00:24;24.90;99.90
12520;DHT22;6325;49.540;8.364;2022-08-05T06:02:53;25.00;99.90
12520;DHT22;6325;49.540;8.364;2022-08-05T06:05:26;25.40;99.90
12520;DHT22;6325;49.540;8.364;2022-08-05T06:07:55;25.00;99.90
12520;DHT22;6325;49.540;8.364;2022-08-05T06:10:28;25.10;99.90
12520;DHT22;6325;49.540;8.364;2022-08-05T06:12:55;25.40;99.90
12520;DHT22;6325;49.540;8.364;2022-08-05T06:15:26;25.30;99.90
12520;DHT22;6325;49.540;8.364;2022-08-05T06:17:58;25.10;99.90
12520;DHT22;6325;49.540;8.364;2022-08-05T06:20:37;24.80;99.90
12520;DHT22;6325;49.540;8.364;2022-08-05T06:23:03;25.20;99.90
12520;DHT22;6325;49.540;8.364;2022-08-05T06:25:31;24.80;99.90
12520;DHT22;6325;49.540;8.364;2022-08-05T06:28:03;24.80;99.90
12520;DHT22;6325;49.540;8.364;2022-08-05T06:30:30;25.40;99.90
12520;DHT22;6325;49.540;8.364;2022-08-05T06:32:58;25.80;99.90
12520;DHT22;6325;49.540;8.364;2022-08-05T06:35:28;25.30;99.90
12520;DHT22;6325;49.540;8.364;2022-08-05T06:38:04;25.50;99.90
12520;DHT22;6325;49.540;8.364;2022-08-05T06:40:31;25.70;99.90
12520;DHT22;6325;49.540;8.364;2022-08-05T06:42:59;25.60;99.90
12520;DHT22;6325;49.540;8.364;2022-08-05T06:45:26;26.00;99.90
12520;DHT22;6325;49.540;8.364;2022-08-05T06:47:55;25.40;99.90
12520;DHT22;6325;49.540;8.364;2022-08-05T06:50:22;25.80;99.90
12520;DHT22;6325;49.540;8.364;2022-08-05T06:52:52;25.80;99.90
12520;DHT22;6325;49.540;8.364;2022-08-05T06:55:22;25.60;99.90
12520;DHT22;6325;49.540;8.364;2022-08-05T06:57:49;25.80;99.90
12520;DHT22;6325;49.540;8.364;2022-08-05T07:00:17;26.20;99.90
12520;DHT22;6325;49.540;8.364;2022-08-05T07:02:46;26.00;99.90
12520;DHT22;6325;49.540;8.364;2022-08-05T07:05:13;26.10;99.90
12520;DHT22;6325;49.540;8.364;2022-08-05T07:07:40;25.70;99.90
12520;DHT22;6325;49.540;8.364;2022-08-05T07:10:09;25.70;99.90
12520;DHT22;6325;49.540;8.364;2022-08-05T07:12:39;26.60;99.90
12520;DHT22;6325;49.540;8.364;2022-08-05T07:15:26;26.30;99.90
12520;DHT22;6325;49.540;8.364;2022-08-05T07:18:10;26.50;99.90
12520;DHT22;6325;49.540;8.364;2022-08-05T07:20:37;25.90;99.90
12520;DHT22;6325;49.540;8.364;2022-08-05T07:23:05;25.90;99.90
12520;DHT22;6325;49.540;8.364;2022-08-05T07:25:33;26.30;99.90
12520;DHT22;6325;49.540;8.364;2022-08-05T07:28:00;25.80;99.90
12520;DHT22;6325;49.540;8.364;2022-08-05T07:30:30;25.80;99.90
12520;DHT22;6325;49.540;8.364;2022-08-05T07:33:01;25.70;99.90
12520;DHT22;6325;49.540;8.364;2022-08-05T07:35:29;25.90;99.90
12520;DHT22;6325;49.540;8.364;2022-08-05T07:37:56;26.20;99.90
12520;DHT22;6325;49.540;8.364;2022-08-05T07:40:23;25.90;99.90
12520;DHT22;6325;49.540;8.364;2022-08-05T07:42:51;25.20;99.90
12520;DHT22;6325;49.540;8.364;2022-08-05T07:45:18;25.70;99.90
12520;DHT22;6325;49.540;8.364;2022-08-05T07:47:46;25.50;99.90
12520;DHT22;6325;49.540;8.364;2022-08-05T07:50:12;25.40;99.90
12520;DHT22;6325;49.540;8.364;2022-08-05T07:52:40;25.90;99.90
12520;DHT22;6325;49.540;8.364;2022-08-05T07:55:08;26.30;99.90
12520;DHT22;6325;49.540;8.364;2022-08-05T07:57:36;25.90;99.90
12520;DHT22;6325;49.540;8.364;2022-08-05T08:00:05;25.90;99.90
12520;DHT22;6325;49.540;8.364;2022-08-05T08:02:32;26.30;99.90
12520;DHT22;6325;49.540;8.364;2022-08-05T08:05:03;25.90;99.90
12520;DHT22;6325;49.540;8.364;2022-08-05T08:07:30;26.00;99.90
12520;DHT22;6325;49.540;8.364;2022-08-05T08:09:56;26.00;99.90
12520;DHT22;6325;49.540;8.364;2022-08-05T08:12:24;26.30;99.90
12520;DHT22;6325;49.540;8.364;2022-08-05T08:14:51;25.90;99.90
12520;DHT22;6325;49.540;8.364;2022-08-05T08:17:19;25.70;99.90
12520;DHT22;6325;49.540;8.364;2022-08-05T08:19:46;26.40;99.90
12520;DHT22;6325;49.540;8.364;2022-08-05T08:22:13;25.80;99.90
12520;DHT22;6325;49.540;8.364;2022-08-05T08:24:40;25.50;99.90
12520;DHT22;6325;49.540;8.364;2022-08-05T08:27:07;25.60;99.90
12520;DHT22;6325;49.540;8.364;2022-08-05T08:29:34;25.40;99.90
12520;DHT22;6325;49.540;8.364;2022-08-05T08:32:00;25.00;99.90
12520;DHT22;6325;49.540;8.364;2022-08-05T08:34:28;25.10;99.90
12520;DHT22;6325;49.540;8.364;2022-08-05T08:36:55;24.60;99.90
12520;DHT22;6325;49.540;8.364;2022-08-05T08:39:22;24.10;99.90
12520;DHT22;6325;49.540;8.364;2022-08-05T08:41:50;24.20;99.90
12520;DHT22;6325;49.540;8.364;2022-08-05T08:44:20;24.00;99.90
12520;DHT22;6325;49.540;8.364;2022-08-05T08:46:47;24.00;99.90
12520;DHT22;6325;49.540;8.364;2022-08-05T08:49:14;24.10;99.90
12520;DHT22;6325;49.540;8.364;2022-08-05T08:51:46;23.80;99.90
12520;DHT22;6325;49.540;8.364;2022-08-05T08:54:16;23.60;99.90
12520;DHT22;6325;49.540;8.364;2022-08-05T08:56:43;23.70;99.90
12520;DHT22;6325;49.540;8.364;2022-08-05T08:59:10;23.70;99.90
12520;DHT22;6325;49.540;8.364;2022-08-05T09:01:37;23.00;99.90
12520;DHT22;6325;49.540;8.364;2022-08-05T09:04:06;23.60;99.90
12520;DHT22;6325;49.540;8.364;2022-08-05T09:06:33;23.10;99.90
12520;DHT22;6325;49.540;8.364;2022-08-05T09:09:01;23.90;99.90
12520;DHT22;6325;49.540;8.364;2022-08-05T09:11:28;24.20;99.90
12520;DHT22;6325;49.540;8.364;2022-08-05T09:13:55;24.00;99.90
12520;DHT22;6325;49.540;8.364;2022-08-05T09:16:22;24.00;99.90
12520;DHT22;6325;49.540;8.364;2022-08-05T09:18:49;24.10;99.90
12520;DHT22;6325;49.540;8.364;2022-08-05T09:21:16;24.10;99.90
12520;DHT22;6325;49.540;8.364;2022-08-05T09:23:44;24.90;99.90
12520;DHT22;6325;49.540;8.364;2022-08-05T09:26:13;24.40;99.90
12520;DHT22;6325;49.540;8.364;2022-08-05T09:28:42;25.10;99.90
12520;DHT22;6325;49.540;8.364;2022-08-05T09:31:09;25.40;99.90
12520;DHT22;6325;49.540;8.364;2022-08-05T09:33:46;25.10;99.90
12520;DHT22;6325;49.540;8.364;2022-08-05T09:36:14;25.60;99.90
12520;DHT22;6325;49.540;8.364;2022-08-05T09:38:54;25.90;99.90
12520;DHT22;6325;49.540;8.364;2022-08-05T09:41:23;25.40;99.90
12520;DHT22;6325;49.540;8.364;2022-08-05T09:43:50;26.00;99.90
12520;DHT22;6325;49.540;8.364;2022-08-05T09:46:25;26.00;99.90
12520;DHT22;6325;49.540;8.364;2022-08-05T09:48:52;26.40;99.90
12520;DHT22;6325;49.540;8.364;2022-08-05T09:51:31;26.00;99.90
12520;DHT22;6325;49.540;8.364;2022-08-05T09:53:59;25.90;99.90
12520;DHT22;6325;49.540;8.364;2022-08-05T09:56:29;26.60;99.90
12520;DHT22;6325;49.540;8.364;2022-08-05T09:59:00;26.10;99.90
12520;DHT22;6325;49.540;8.364;2022-08-05T10:01:27;26.20;99.90
12520;DHT22;6325;49.540;8.364;2022-08-05T10:03:55;26.30;99.90
12520;DHT22;6325;49.540;8.364;2022-08-05T10:06:25;25.90;99.90
12520;DHT22;6325;49.540;8.364;2022-08-05T10:08:52;26.70;99.90
12520;DHT22;6325;49.540;8.364;2022-08-05T10:11:19;26.60;99.90
12520;DHT22;6325;49.540;8.364;2022-08-05T10:13:48;26.50;99.90
12520;DHT22;6325;49.540;8.364;2022-08-05T10:16:29;26.60;99.90
12520;DHT22;6325;49.540;8.364;2022-08-05T10:18:57;27.10;99.90
12520;DHT22;6325;49.540;8.364;2022-08-05T10:21:24;27.70;99.90
12520;DHT22;6325;49.540;8.364;2022-08-05T10:23:52;27.80;99.90
12520;DHT22;6325;49.540;8.364;2022-08-05T10:26:19;27.00;99.90
12520;DHT22;6325;49.540;8.364;2022-08-05T10:28:47;26.80;99.90
12520;DHT22;6325;49.540;8.364;2022-08-05T10:31:16;27.90;99.90
12520;DHT22;6325;49.540;8.364;2022-08-05T10:33:43;27.10;99.90
12520;DHT22;6325;49.540;8.364;2022-08-05T10:36:09;27.10;99.90
12520;DHT22;6325;49.540;8.364;2022-08-05T10:38:37;27.20;99.90
12520;DHT22;6325;49.540;8.364;2022-08-05T10:41:10;27.40;99.90
12520;DHT22;6325;49.540;8.364;2022-08-05T10:43:49;27.20;99.90
12520;DHT22;6325;49.540;8.364;2022-08-05T10:46:18;27.90;99.90
12520;DHT22;6325;49.540;8.364;2022-08-05T10:48:46;27.40;99.90
12520;DHT22;6325;49.540;8.364;2022-08-05T10:51:14;27.40;99.90
12520;DHT22;6325;49.540;8.364;2022-08-05T10:53:43;27.50;99.90
12520;DHT22;6325;49.540;8.364;2022-08-05T10:56:13;27.40;99.90
12520;DHT22;6325;49.540;8.364;2022-08-05T10:59:00;27.60;99.90
12520;DHT22;6325;49.540;8.364;2022-08-05T11:01:29;27.60;99.90
12520;DHT22;6325;49.540;8.364;2022-08-05T11:04:07;27.50;99.90
12520;DHT22;6325;49.540;8.364;2022-08-05T11:07:04;27.60;99.90
12520;DHT22;6325;49.540;8.364;2022-08-05T11:09:37;27.60;99.90
12520;DHT22;6325;49.540;8.364;2022-08-05T11:12:40;27.40;99.90
12520;DHT22;6325;49.540;8.364;2022-08-05T11:15:15;27.60;99.90
12520;DHT22;6325;49.540;8.364;2022-08-05T11:17:43;27.50;99.90
12520;DHT22;6325;49.540;8.364;2022-08-05T11:20:30;27.50;99.90
12520;DHT22;6325;49.540;8.364;2022-08-05T11:22:57;28.00;99.90
12520;DHT22;6325;49.540;8.364;2022-08-05T11:25:29;28.20;99.90
12520;DHT22;6325;49.540;8.364;2022-08-05T11:27:56;28.30;99.90
12520;DHT22;6325;49.540;8.364;2022-08-05T11:31:21;28.40;99.90
12520;DHT22;6325;49.540;8.364;2022-08-05T11:33:54;28.50;99.90
12520;DHT22;6325;49.540;8.364;2022-08-05T11:36:38;28.50;99.90
12520;DHT22;6325;49.540;8.364;2022-08-05T11:39:05;28.50;99.90
12520;DHT22;6325;49.540;8.364;2022-08-05T11:41:33;28.60;99.90
12520;DHT22;6325;49.540;8.364;2022-08-05T11:44:03;28.60;99.90
12520;DHT22;6325;49.540;8.364;2022-08-05T11:46:34;28.70;99.90
12520;DHT22;6325;49.540;8.364;2022-08-05T11:49:03;28.80;99.90
12520;DHT22;6325;49.540;8.364;2022-08-05T11:51:31;28.50;99.90
12520;DHT22;6325;49.540;8.364;2022-08-05T11:53:58;29.00;99.90
12520;DHT22;6325;49.540;8.364;2022-08-05T11:56:44;29.40;99.90
12520;DHT22;6325;49.540;8.364;2022-08-05T11:59:14;29.10;99.90
12520;DHT22;6325;49.540;8.364;2022-08-05T12:02:00;29.10;99.90
12520;DHT22;6325;49.540;8.364;2022-08-05T12:04:36;29.10;99.90
12520;DHT22;6325;49.540;8.364;2022-08-05T12:07:05;29.10;99.90
12520;DHT22;6325;49.540;8.364;2022-08-05T12:09:36;28.90;99.90
12520;DHT22;6325;49.540;8.364;2022-08-05T12:12:04;29.10;99.90
12520;DHT22;6325;49.540;8.364;2022-08-05T12:14:35;29.30;99.90
12520;DHT22;6325;49.540;8.364;2022-08-05T12:17:07;29.10;99.90
12520;DHT22;6325;49.540;8.364;2022-08-05T12:19:41;29.10;99.90
12520;DHT22;6325;49.540;8.364;2022-08-05T12:22:09;29.20;99.90
12520;DHT22;6325;49.540;8.364;2022-08-05T12:24:40;29.40;99.90
12520;DHT22;6325;49.540;8.364;2022-08-05T12:27:08;29.20;99.90
12520;DHT22;6325;49.540;8.364;2022-08-05T12:29:35;29.20;99.90
12520;DHT22;6325;49.540;8.364;2022-08-05T12:32:04;29.70;99.90
12520;DHT22;6325;49.540;8.364;2022-08-05T12:34:35;29.30;99.90
12520;DHT22;6325;49.540;8.364;2022-08-05T12:37:05;29.20;99.90
12520;DHT22;6325;49.540;8.364;2022-08-05T12:39:36;30.30;99.90
12520;DHT22;6325;49.540;8.364;2022-08-05T12:42:08;29.70;99.90
12520;DHT22;6325;49.540;8.364;2022-08-05T12:44:35;29.30;99.90
12520;DHT22;6325;49.540;8.364;2022-08-05T12:47:04;29.70;99.90
12520;DHT22;6325;49.540;8.364;2022-08-05T12:49:46;29.50;99.90
12520;DHT22;6325;49.540;8.364;2022-08-05T12:52:15;29.40;99.90
12520;DHT22;6325;49.540;8.364;2022-08-05T12:54:43;29.40;99.90
12520;DHT22;6325;49.540;8.364;2022-08-05T12:57:12;29.60;99.90
12520;DHT22;6325;49.540;8.364;2022-08-05T12:59:44;29.50;99.90
12520;DHT22;6325;49.540;8.364;2022-08-05T13:02:12;29.80;99.90
12520;DHT22;6325;49.540;8.364;2022-08-05T13:04:42;29.60;99.90
12520;DHT22;6325;49.540;8.364;2022-08-05T13:07:12;29.70;99.90
12520;DHT22;6325;49.540;8.364;2022-08-05T13:09:46;29.80;99.90
12520;DHT22;6325;49.540;8.364;2022-08-05T13:12:15;29.80;99.90
12520;DHT22;6325;49.540;8.364;2022-08-05T13:14:44;29.90;99.90
12520;DHT22;6325;49.540;8.364;2022-08-05T13:17:16;30.00;99.90
12520;DHT22;6325;49.540;8.364;2022-08-05T13:19:58;30.00;99.90
12520;DHT22;6325;49.540;8.364;2022-08-05T13:22:27;30.60;99.90
12520;DHT22;6325;49.540;8.364;2022-08-05T13:24:54;30.70;99.90
12520;DHT22;6325;49.540;8.364;2022-08-05T13:27:25;31.10;99.90
12520;DHT22;6325;49.540;8.364;2022-08-05T13:29:52;31.30;99.90
12520;DHT22;6325;49.540;8.364;2022-08-05T13:32:19;30.90;99.90
12520;DHT22;6325;49.540;8.364;2022-08-05T13:34:46;31.20;99.90
12520;DHT22;6325;49.540;8.364;2022-08-05T13:37:13;31.10;99.90
12520;DHT22;6325;49.540;8.364;2022-08-05T13:39:42;31.20;99.90
12520;DHT22;6325;49.540;8.364;2022-08-05T13:42:09;31.00;99.90
12520;DHT22;6325;49.540;8.364;2022-08-05T13:44:36;30.70;99.90
12520;DHT22;6325;49.540;8.364;2022-08-05T13:47:04;31.10;99.90
12520;DHT22;6325;49.540;8.364;2022-08-05T13:49:31;30.40;99.90
12520;DHT22;6325;49.540;8.364;2022-08-05T13:52:08;30.70;99.90
12520;DHT22;6325;49.540;8.364;2022-08-05T13:54:35;30.60;99.90
12520;DHT22;6325;49.540;8.364;2022-08-05T13:57:04;30.50;99.90
12520;DHT22;6325;49.540;8.364;2022-08-05T13:59:31;30.40;99.90
12520;DHT22;6325;49.540;8.364;2022-08-05T14:01:59;29.70;99.90
12520;DHT22;6325;49.540;8.364;2022-08-05T14:04:27;30.00;99.90
12520;DHT22;6325;49.540;8.364;2022-08-05T14:07:12;30.10;99.90
12520;DHT22;6325;49.540;8.364;2022-08-05T14:09:39;30.30;99.90
12520;DHT22;6325;49.540;8.364;2022-08-05T14:12:07;30.60;99.90
12520;DHT22;6325;49.540;8.364;2022-08-05T14:14:34;30.40;99.90
12520;DHT22;6325;49.540;8.364;2022-08-05T14:17:02;31.00;99.90
12520;DHT22;6325;49.540;8.364;2022-08-05T14:19:29;30.90;99.90
12520;DHT22;6325;49.540;8.364;2022-08-05T14:21:56;30.40;99.90
12520;DHT22;6325;49.540;8.364;2022-08-05T14:24:23;30.70;99.90
12520;DHT22;6325;49.540;8.364;2022-08-05T14:26:50;30.40;99.90
12520;DHT22;6325;49.540;8.364;2022-08-05T14:29:18;29.70;99.90
12520;DHT22;6325;49.540;8.364;2022-08-05T14:31:49;30.00;99.90
12520;DHT22;6325;49.540;8.364;2022-08-05T14:34:28;29.70;99.90
12520;DHT22;6325;49.540;8.364;2022-08-05T15:08:28;28.20;99.90
12520;DHT22;6325;49.540;8.364;2022-08-05T15:11:41;28.00;99.90
12520;DHT22;6325;49.540;8.364;2022-08-05T15:20:54;27.60;99.90
12520;DHT22;6325;49.540;8.364;2022-08-05T18:43:05;23.70;99.90
12520;DHT22;6325;49.540;8.364;2022-08-05T18:45:32;23.90;99.90
12520;DHT22;6325;49.540;8.364;2022-08-05T18:47:59;23.80;99.90
12520;DHT22;6325;49.540;8.364;2022-08-05T18:50:26;23.70;99.90
12520;DHT22;6325;49.540;8.364;2022-08-05T18:53:11;23.90;99.90
12520;DHT22;6325;49.540;8.364;2022-08-05T18:55:38;23.90;99.90
12520;DHT22;6325;49.540;8.364;2022-08-05T18:58:07;23.90;99.90
12520;DHT22;6325;49.540;8.364;2022-08-05T19:00:36;23.40;99.90
12520;DHT22;6325;49.540;8.364;2022-08-05T19:03:03;23.60;99.90
12520;DHT22;6325;49.540;8.364;2022-08-05T19:05:31;23.70;99.90
12520;DHT22;6325;49.540;8.364;2022-08-05T19:07:58;23.60;99.90
12520;DHT22;6325;49.540;8.364;2022-08-05T19:10:27;23.50;99.90
12520;DHT22;6325;49.540;8.364;2022-08-05T19:12:56;23.70;99.90
12520;DHT22;6325;49.540;8.364;2022-08-05T19:15:25;23.20;99.90
12520;DHT22;6325;49.540;8.364;2022-08-05T19:17:55;23.30;99.90
12520;DHT22;6325;49.540;8.364;2022-08-05T19:20:22;23.60;99.90
12520;DHT22;6325;49.540;8.364;2022-08-05T19:22:49;23.80;99.90
12520;DHT22;6325;49.540;8.364;2022-08-05T19:25:17;22.80;99.90
12520;DHT22;6325;49.540;8.364;2022-08-05T19:27:44;23.40;99.90
12520;DHT22;6325;49.540;8.364;2022-08-05T19:30:12;22.90;99.90
12520;DHT22;6325;49.540;8.364;2022-08-05T19:32:41;23.20;99.90
12520;DHT22;6325;49.540;8.364;2022-08-05T19:35:10;23.30;99.90
12520;DHT22;6325;49.540;8.364;2022-08-05T19:37:37;23.00;99.90
12520;DHT22;6325;49.540;8.364;2022-08-05T19:40:06;23.30;99.90
12520;DHT22;6325;49.540;8.364;2022-08-05T19:42:33;23.10;99.90
12520;DHT22;6325;49.540;8.364;2022-08-05T19:45:01;23.30;99.90
12520;DHT22;6325;49.540;8.364;2022-08-05T19:47:28;22.80;99.90
12520;DHT22;6325;49.540;8.364;2022-08-05T19:49:56;23.00;99.90
12520;DHT22;6325;49.540;8.364;2022-08-05T19:52:25;22.80;99.90
12520;DHT22;6325;49.540;8.364;2022-08-05T19:54:52;23.10;99.90
12520;DHT22;6325;49.540;8.364;2022-08-05T19:57:19;22.60;99.90
12520;DHT22;6325;49.540;8.364;2022-08-05T19:59:48;22.90;99.90